sensor_id;sensor_type;location;lat;lon;timestamp;temperature;humidity
2749;DHT22;1382;52.142;11.618;2023-09-07T00:01:07;23.50;45.10
2749;DHT22;1382;52.142;11.618;2023-09-07T00:03:35;23.60;45.30
2749;DHT22;1382;52.142;11.618;2023-09-07T00:06:02;23.40;45.40
2749;DHT22;1382;52.142;11.618;2023-09-07T00:08:29;23.40;45.40
2749;DHT22;1382;52.142;11.618;2023-09-07T00:11:02;23.40;45.30
2749;DHT22;1382;52.142;11.618;2023-09-07T00:13:29;23.30;45.30
2749;DHT22;1382;52.142;11.618;2023-09-07T00:16:05;23.30;45.20
2749;DHT22;1382;52.142;11.618;2023-09-07T00:18:32;23.10;45.10
2749;DHT22;1382;52.142;11.618;2023-09-07T00:21:01;23.10;45.20
2749;DHT22;1382;52.142;11.618;2023-09-07T00:23:28;23.10;45.30
2749;DHT22;1382;52.142;11.618;2023-09-07T00:25:55;23.10;45.20
2749;DHT22;1382;52.142;11.618;2023-09-07T00:28:22;23.00;45.20
2749;DHT22;1382;52.142;11.618;2023-09-07T00:30:49;23.00;45.40
2749;DHT22;1382;52.142;11.618;2023-09-07T00:33:16;22.90;45.50
2749;DHT22;1382;52.142;11.618;2023-09-07T00:35:42;22.90;45.30
2749;DHT22;1382;52.142;11.618;2023-09-07T00:38:11;22.90;45.50
2749;DHT22;1382;52.142;11.618;2023-09-07T00:40:37;22.80;45.60
2749;DHT22;1382;52.142;11.618;2023-09-07T00:43:04;22.80;45.40
2749;DHT22;1382;52.142;11.618;2023-09-07T00:45:31;22.80;45.50
2749;DHT22;1382;52.142;11.618;2023-09-07T00:47:58;22.70;45.40
2749;DHT22;1382;52.142;11.618;2023-09-07T00:50:25;22.70;45.50
2749;DHT22;1382;52.142;11.618;2023-09-07T00:52:52;22.60;45.40
2749;DHT22;1382;52.142;11.618;2023-09-07T00:55:21;22.60;45.60
2749;DHT22;1382;52.142;11.618;2023-09-07T00:57:48;22.60;45.60
2749;DHT22;1382;52.142;11.618;2023-09-07T01:00:16;22.50;45.50
2749;DHT22;1382;52.142;11.618;2023-09-07T01:02:43;22.50;45.50
2749;DHT22;1382;52.142;11.618;2023-09-07T01:05:10;22.40;45.40
2749;DHT22;1382;52.142;11.618;2023-09-07T01:07:40;22.40;45.50
2749;DHT22;1382;52.142;11.618;2023-09-07T01:10:08;22.40;45.60
2749;DHT22;1382;52.142;11.618;2023-09-07T01:12:36;22.30;46.20
2749;DHT22;1382;52.142;11.618;2023-09-07T01:15:04;22.30;45.50
2749;DHT22;1382;52.142;11.618;2023-09-07T01:17:31;22.20;45.50
2749;DHT22;1382;52.142;11.618;2023-09-07T01:20:03;22.20;45.40
2749;DHT22;1382;52.142;11.618;2023-09-07T01:22:31;22.20;45.60
2749;DHT22;1382;52.142;11.618;2023-09-07T01:25:00;22.10;45.60
2749;DHT22;1382;52.142;11.618;2023-09-07T01:27:28;22.10;45.40
2749;DHT22;1382;52.142;11.618;2023-09-07T01:29:55;22.00;45.30
2749;DHT22;1382;52.142;11.618;2023-09-07T01:35:05;22.00;45.60
2749;DHT22;1382;52.142;11.618;2023-09-07T01:37:34;21.90;45.60
2749;DHT22;1382;52.142;11.618;2023-09-07T01:40:01;21.90;45.70
2749;DHT22;1382;52.142;11.618;2023-09-07T01:42:28;21.80;45.50
2749;DHT22;1382;52.142;11.618;2023-09-07T01:44:55;21.90;45.60
2749;DHT22;1382;52.142;11.618;2023-09-07T01:47:22;21.80;45.50
2749;DHT22;1382;52.142;11.618;2023-09-07T01:49:49;21.80;45.40
2749;DHT22;1382;52.142;11.618;2023-09-07T01:52:16;21.70;45.30
2749;DHT22;1382;52.142;11.618;2023-09-07T01:54:44;21.70;45.90
2749;DHT22;1382;52.142;11.618;2023-09-07T01:57:11;21.70;45.80
2749;DHT22;1382;52.142;11.618;2023-09-07T01:59:38;21.60;45.50
2749;DHT22;1382;52.142;11.618;2023-09-07T02:02:05;21.60;45.70
2749;DHT22;1382;52.142;11.618;2023-09-07T02:04:32;21.60;45.80
2749;DHT22;1382;52.142;11.618;2023-09-07T02:06:58;21.50;45.60
2749;DHT22;1382;52.142;11.618;2023-09-07T02:09:25;21.50;45.70
2749;DHT22;1382;52.142;11.618;2023-09-07T02:11:53;21.50;45.80
2749;DHT22;1382;52.142;11.618;2023-09-07T02:14:20;21.40;45.60
2749;DHT22;1382;52.142;11.618;2023-09-07T02:16:47;21.40;45.50
2749;DHT22;1382;52.142;11.618;2023-09-07T02:19:14;21.40;45.50
2749;DHT22;1382;52.142;11.618;2023-09-07T02:21:41;21.30;45.40
2749;DHT22;1382;52.142;11.618;2023-09-07T02:24:08;21.30;45.60
2749;DHT22;1382;52.142;11.618;2023-09-07T02:26:35;21.30;45.60
2749;DHT22;1382;52.142;11.618;2023-09-07T02:29:03;21.20;45.80
2749;DHT22;1382;52.142;11.618;2023-09-07T02:31:30;21.20;45.80
2749;DHT22;1382;52.142;11.618;2023-09-07T02:33:57;21.20;45.90
2749;DHT22;1382;52.142;11.618;2023-09-07T02:36:23;21.20;45.70
2749;DHT22;1382;52.142;11.618;2023-09-07T02:38:50;21.20;45.80
2749;DHT22;1382;52.142;11.618;2023-09-07T02:41:17;21.20;45.90
2749;DHT22;1382;52.142;11.618;2023-09-07T02:43:45;21.10;45.60
2749;DHT22;1382;52.142;11.618;2023-09-07T02:46:13;21.10;45.80
2749;DHT22;1382;52.142;11.618;2023-09-07T02:48:40;21.10;46.90
2749;DHT22;1382;52.142;11.618;2023-09-07T02:51:07;21.20;46.50
2749;DHT22;1382;52.142;11.618;2023-09-07T02:53:34;21.00;46.00
2749;DHT22;1382;52.142;11.618;2023-09-07T02:56:01;21.00;45.90
2749;DHT22;1382;52.142;11.618;2023-09-07T02:58:28;21.00;45.90
2749;DHT22;1382;52.142;11.618;2023-09-07T03:00:55;21.00;45.90
2749;DHT22;1382;52.142;11.618;2023-09-07T03:03:23;21.00;45.90
2749;DHT22;1382;52.142;11.618;2023-09-07T03:05:50;20.90;46.00
2749;DHT22;1382;52.142;11.618;2023-09-07T03:08:17;20.90;46.00
2749;DHT22;1382;52.142;11.618;2023-09-07T03:10:46;20.90;46.00
2749;DHT22;1382;52.142;11.618;2023-09-07T03:13:13;20.80;45.90
2749;DHT22;1382;52.142;11.618;2023-09-07T03:15:40;20.80;45.80
2749;DHT22;1382;52.142;11.618;2023-09-07T03:18:07;20.80;45.90
2749;DHT22;1382;52.142;11.618;2023-09-07T03:20:35;20.80;45.80
2749;DHT22;1382;52.142;11.618;2023-09-07T03:23:02;20.80;45.90
2749;DHT22;1382;52.142;11.618;2023-09-07T03:25:29;20.70;45.90
2749;DHT22;1382;52.142;11.618;2023-09-07T03:27:56;20.70;45.80
2749;DHT22;1382;52.142;11.618;2023-09-07T03:30:23;20.70;45.90
2749;DHT22;1382;52.142;11.618;2023-09-07T03:32:50;20.70;45.80
2749;DHT22;1382;52.142;11.618;2023-09-07T03:35:17;20.70;45.90
2749;DHT22;1382;52.142;11.618;2023-09-07T03:37:45;20.60;45.80
2749;DHT22;1382;52.142;11.618;2023-09-07T03:40:12;20.60;46.10
2749;DHT22;1382;52.142;11.618;2023-09-07T03:42:39;20.60;45.90
2749;DHT22;1382;52.142;11.618;2023-09-07T03:45:06;20.60;46.00
2749;DHT22;1382;52.142;11.618;2023-09-07T03:47:33;20.50;46.20
2749;DHT22;1382;52.142;11.618;2023-09-07T03:50:00;20.50;46.10
2749;DHT22;1382;52.142;11.618;2023-09-07T03:52:30;20.50;46.10
2749;DHT22;1382;52.142;11.618;2023-09-07T03:55:00;20.50;46.10
2749;DHT22;1382;52.142;11.618;2023-09-07T03:57:27;20.50;46.00
2749;DHT22;1382;52.142;11.618;2023-09-07T03:59:54;20.40;46.10
2749;DHT22;1382;52.142;11.618;2023-09-07T04:02:21;20.40;46.80
2749;DHT22;1382;52.142;11.618;2023-09-07T04:04:49;20.40;46.90
2749;DHT22;1382;52.142;11.618;2023-09-07T04:07:16;20.40;46.40
2749;DHT22;1382;52.142;11.618;2023-09-07T04:09:44;20.30;46.50
2749;DHT22;1382;52.142;11.618;2023-09-07T04:12:13;20.30;46.40
2749;DHT22;1382;52.142;11.618;2023-09-07T04:14:40;20.30;46.20
2749;DHT22;1382;52.142;11.618;2023-09-07T04:17:07;20.20;46.30
2749;DHT22;1382;52.142;11.618;2023-09-07T04:19:34;20.20;46.10
2749;DHT22;1382;52.142;11.618;2023-09-07T04:22:01;20.20;46.10
2749;DHT22;1382;52.142;11.618;2023-09-07T04:24:28;20.20;46.00
2749;DHT22;1382;52.142;11.618;2023-09-07T04:27:00;20.10;46.10
2749;DHT22;1382;52.142;11.618;2023-09-07T04:29:29;20.10;45.80
2749;DHT22;1382;52.142;11.618;2023-09-07T04:31:56;20.10;46.10
2749;DHT22;1382;52.142;11.618;2023-09-07T04:34:23;20.10;46.00
2749;DHT22;1382;52.142;11.618;2023-09-07T04:36:51;19.90;45.90
2749;DHT22;1382;52.142;11.618;2023-09-07T04:39:17;20.00;46.30
2749;DHT22;1382;52.142;11.618;2023-09-07T04:41:44;20.00;46.10
2749;DHT22;1382;52.142;11.618;2023-09-07T04:44:11;19.90;46.70
2749;DHT22;1382;52.142;11.618;2023-09-07T04:46:40;19.90;46.00
2749;DHT22;1382;52.142;11.618;2023-09-07T04:49:07;19.90;46.00
2749;DHT22;1382;52.142;11.618;2023-09-07T04:51:36;19.90;45.90
2749;DHT22;1382;52.142;11.618;2023-09-07T04:54:03;19.80;46.00
2749;DHT22;1382;52.142;11.618;2023-09-07T04:56:30;19.80;46.10
2749;DHT22;1382;52.142;11.618;2023-09-07T04:58:57;19.80;46.70
2749;DHT22;1382;52.142;11.618;2023-09-07T05:01:24;19.80;45.80
2749;DHT22;1382;52.142;11.618;2023-09-07T05:03:52;19.80;46.20
2749;DHT22;1382;52.142;11.618;2023-09-07T05:06:19;19.70;45.90
2749;DHT22;1382;52.142;11.618;2023-09-07T05:08:46;19.70;45.90
2749;DHT22;1382;52.142;11.618;2023-09-07T05:11:13;19.70;46.00
2749;DHT22;1382;52.142;11.618;2023-09-07T05:13:40;19.70;45.90
2749;DHT22;1382;52.142;11.618;2023-09-07T05:16:07;19.60;46.20
2749;DHT22;1382;52.142;11.618;2023-09-07T05:18:34;19.60;46.20
2749;DHT22;1382;52.142;11.618;2023-09-07T05:21:11;19.70;46.30
2749;DHT22;1382;52.142;11.618;2023-09-07T05:23:38;19.60;46.10
2749;DHT22;1382;52.142;11.618;2023-09-07T05:26:05;19.60;46.10
2749;DHT22;1382;52.142;11.618;2023-09-07T05:28:32;19.60;47.10
2749;DHT22;1382;52.142;11.618;2023-09-07T05:30:59;19.60;46.60
2749;DHT22;1382;52.142;11.618;2023-09-07T05:33:26;19.50;47.00
2749;DHT22;1382;52.142;11.618;2023-09-07T05:35:53;19.60;47.50
2749;DHT22;1382;52.142;11.618;2023-09-07T05:38:21;19.50;47.90
2749;DHT22;1382;52.142;11.618;2023-09-07T05:40:48;19.50;48.50
2749;DHT22;1382;52.142;11.618;2023-09-07T05:43:15;19.50;48.60
2749;DHT22;1382;52.142;11.618;2023-09-07T05:45:42;19.50;49.30
2749;DHT22;1382;52.142;11.618;2023-09-07T05:48:09;19.60;49.90
2749;DHT22;1382;52.142;11.618;2023-09-07T05:50:37;19.60;50.30
2749;DHT22;1382;52.142;11.618;2023-09-07T05:53:05;19.60;50.30
2749;DHT22;1382;52.142;11.618;2023-09-07T05:55:33;19.60;50.30
2749;DHT22;1382;52.142;11.618;2023-09-07T05:58:03;19.70;50.30
2749;DHT22;1382;52.142;11.618;2023-09-07T06:00:31;19.70;50.40
2749;DHT22;1382;52.142;11.618;2023-09-07T06:02:58;19.80;50.70
2749;DHT22;1382;52.142;11.618;2023-09-07T06:05:25;19.80;51.10
2749;DHT22;1382;52.142;11.618;2023-09-07T06:08:00;19.90;51.40
2749;DHT22;1382;52.142;11.618;2023-09-07T06:10:29;20.00;52.00
2749;DHT22;1382;52.142;11.618;2023-09-07T06:12:57;20.00;52.00
2749;DHT22;1382;52.142;11.618;2023-09-07T06:15:27;20.10;52.50
2749;DHT22;1382;52.142;11.618;2023-09-07T06:17:54;20.20;53.10
2749;DHT22;1382;52.142;11.618;2023-09-07T06:20:21;20.30;53.20
2749;DHT22;1382;52.142;11.618;2023-09-07T06:22:48;20.40;52.90
2749;DHT22;1382;52.142;11.618;2023-09-07T06:25:15;20.40;52.50
2749;DHT22;1382;52.142;11.618;2023-09-07T06:27:42;20.50;52.90
2749;DHT22;1382;52.142;11.618;2023-09-07T06:30:11;20.70;52.50
2749;DHT22;1382;52.142;11.618;2023-09-07T06:32:38;20.80;52.40
2749;DHT22;1382;52.142;11.618;2023-09-07T06:35:06;20.90;52.60
2749;DHT22;1382;52.142;11.618;2023-09-07T06:37:33;21.00;52.90
2749;DHT22;1382;52.142;11.618;2023-09-07T06:40:00;21.10;52.50
2749;DHT22;1382;52.142;11.618;2023-09-07T06:42:27;21.20;52.50
2749;DHT22;1382;52.142;11.618;2023-09-07T06:44:53;21.30;52.80
2749;DHT22;1382;52.142;11.618;2023-09-07T06:47:22;21.40;53.00
2749;DHT22;1382;52.142;11.618;2023-09-07T06:49:48;21.60;52.80
2749;DHT22;1382;52.142;11.618;2023-09-07T06:52:15;21.70;51.00
2749;DHT22;1382;52.142;11.618;2023-09-07T06:54:43;21.80;50.60
2749;DHT22;1382;52.142;11.618;2023-09-07T06:57:10;21.90;50.30
2749;DHT22;1382;52.142;11.618;2023-09-07T06:59:37;22.00;51.20
2749;DHT22;1382;52.142;11.618;2023-09-07T07:02:04;22.10;52.80
2749;DHT22;1382;52.142;11.618;2023-09-07T07:04:32;22.20;52.20
2749;DHT22;1382;52.142;11.618;2023-09-07T07:06:59;22.30;51.90
2749;DHT22;1382;52.142;11.618;2023-09-07T07:09:26;22.50;51.00
2749;DHT22;1382;52.142;11.618;2023-09-07T07:11:53;22.60;49.90
2749;DHT22;1382;52.142;11.618;2023-09-07T07:14:19;22.80;50.00
2749;DHT22;1382;52.142;11.618;2023-09-07T07:16:46;22.90;50.30
2749;DHT22;1382;52.142;11.618;2023-09-07T07:19:13;23.00;50.10
2749;DHT22;1382;52.142;11.618;2023-09-07T07:21:42;23.20;49.80
2749;DHT22;1382;52.142;11.618;2023-09-07T07:24:09;23.30;49.80
2749;DHT22;1382;52.142;11.618;2023-09-07T07:26:35;23.40;49.80
2749;DHT22;1382;52.142;11.618;2023-09-07T07:29:02;23.60;49.60
2749;DHT22;1382;52.142;11.618;2023-09-07T07:31:29;23.70;49.50
2749;DHT22;1382;52.142;11.618;2023-09-07T07:33:57;23.90;49.40
2749;DHT22;1382;52.142;11.618;2023-09-07T07:36:24;24.00;49.30
2749;DHT22;1382;52.142;11.618;2023-09-07T07:38:52;24.10;49.20
2749;DHT22;1382;52.142;11.618;2023-09-07T07:41:19;24.30;49.20
2749;DHT22;1382;52.142;11.618;2023-09-07T07:43:46;24.40;49.20
2749;DHT22;1382;52.142;11.618;2023-09-07T07:46:13;24.70;49.40
2749;DHT22;1382;52.142;11.618;2023-09-07T07:48:46;24.70;49.10
2749;DHT22;1382;52.142;11.618;2023-09-07T07:51:13;24.80;49.10
2749;DHT22;1382;52.142;11.618;2023-09-07T07:53:40;25.00;49.00
2749;DHT22;1382;52.142;11.618;2023-09-07T07:56:15;25.20;48.90
2749;DHT22;1382;52.142;11.618;2023-09-07T07:58:45;25.30;48.90
2749;DHT22;1382;52.142;11.618;2023-09-07T08:01:15;25.40;48.80
2749;DHT22;1382;52.142;11.618;2023-09-07T08:03:43;25.50;48.50
2749;DHT22;1382;52.142;11.618;2023-09-07T08:06:10;25.70;48.50
2749;DHT22;1382;52.142;11.618;2023-09-07T08:08:37;25.90;48.40
2749;DHT22;1382;52.142;11.618;2023-09-07T08:11:04;26.10;48.20
2749;DHT22;1382;52.142;11.618;2023-09-07T08:13:32;26.10;48.30
2749;DHT22;1382;52.142;11.618;2023-09-07T08:16:00;26.30;48.10
2749;DHT22;1382;52.142;11.618;2023-09-07T08:18:27;26.50;48.00
2749;DHT22;1382;52.142;11.618;2023-09-07T08:20:54;26.60;47.80
2749;DHT22;1382;52.142;11.618;2023-09-07T08:23:21;26.70;47.70
2749;DHT22;1382;52.142;11.618;2023-09-07T08:25:48;26.90;47.40
2749;DHT22;1382;52.142;11.618;2023-09-07T08:28:15;27.10;47.30
2749;DHT22;1382;52.142;11.618;2023-09-07T08:30:43;27.20;47.00
2749;DHT22;1382;52.142;11.618;2023-09-07T08:33:10;27.40;46.80
2749;DHT22;1382;52.142;11.618;2023-09-07T08:35:38;27.40;46.30
2749;DHT22;1382;52.142;11.618;2023-09-07T08:38:05;27.60;46.40
2749;DHT22;1382;52.142;11.618;2023-09-07T08:40:32;27.70;46.20
2749;DHT22;1382;52.142;11.618;2023-09-07T08:43:00;27.90;46.20
2749;DHT22;1382;52.142;11.618;2023-09-07T08:48:21;28.20;45.00
2749;DHT22;1382;52.142;11.618;2023-09-07T08:50:49;28.30;45.10
2749;DHT22;1382;52.142;11.618;2023-09-07T08:53:18;28.50;45.30
2749;DHT22;1382;52.142;11.618;2023-09-07T08:55:45;28.60;44.30
2749;DHT22;1382;52.142;11.618;2023-09-07T08:58:12;28.80;44.30
2749;DHT22;1382;52.142;11.618;2023-09-07T09:00:40;28.90;44.60
2749;DHT22;1382;52.142;11.618;2023-09-07T09:03:09;29.00;43.70
2749;DHT22;1382;52.142;11.618;2023-09-07T09:05:39;29.20;44.20
2749;DHT22;1382;52.142;11.618;2023-09-07T09:08:06;29.40;44.00
2749;DHT22;1382;52.142;11.618;2023-09-07T09:10:38;29.50;44.00
2749;DHT22;1382;52.142;11.618;2023-09-07T09:13:05;29.60;44.00
2749;DHT22;1382;52.142;11.618;2023-09-07T09:15:32;29.70;43.50
2749;DHT22;1382;52.142;11.618;2023-09-07T09:18:09;29.70;43.10
2749;DHT22;1382;52.142;11.618;2023-09-07T09:20:38;30.00;43.30
2749;DHT22;1382;52.142;11.618;2023-09-07T09:23:05;30.10;43.10
2749;DHT22;1382;52.142;11.618;2023-09-07T09:25:32;30.10;42.70
2749;DHT22;1382;52.142;11.618;2023-09-07T09:28:02;30.30;42.90
2749;DHT22;1382;52.142;11.618;2023-09-07T09:30:29;30.40;42.90
2749;DHT22;1382;52.142;11.618;2023-09-07T09:32:56;30.40;42.20
2749;DHT22;1382;52.142;11.618;2023-09-07T09:35:26;30.60;42.70
2749;DHT22;1382;52.142;11.618;2023-09-07T09:37:54;30.70;42.30
2749;DHT22;1382;52.142;11.618;2023-09-07T09:40:22;30.80;42.00
2749;DHT22;1382;52.142;11.618;2023-09-07T09:42:52;31.00;42.90
2749;DHT22;1382;52.142;11.618;2023-09-07T09:45:21;31.10;42.40
2749;DHT22;1382;52.142;11.618;2023-09-07T09:47:50;31.20;41.10
2749;DHT22;1382;52.142;11.618;2023-09-07T09:50:18;31.20;40.80
2749;DHT22;1382;52.142;11.618;2023-09-07T09:52:46;31.30;39.70
2749;DHT22;1382;52.142;11.618;2023-09-07T09:55:15;31.30;40.80
2749;DHT22;1382;52.142;11.618;2023-09-07T09:57:43;31.40;40.20
2749;DHT22;1382;52.142;11.618;2023-09-07T10:00:12;31.50;39.50
2749;DHT22;1382;52.142;11.618;2023-09-07T10:02:39;31.50;40.20
2749;DHT22;1382;52.142;11.618;2023-09-07T10:05:12;31.60;40.00
2749;DHT22;1382;52.142;11.618;2023-09-07T10:07:42;31.80;40.60
2749;DHT22;1382;52.142;11.618;2023-09-07T10:10:10;31.80;39.00
2749;DHT22;1382;52.142;11.618;2023-09-07T10:12:43;32.10;39.40
2749;DHT22;1382;52.142;11.618;2023-09-07T10:15:23;32.10;38.40
2749;DHT22;1382;52.142;11.618;2023-09-07T10:17:50;32.10;37.20
2749;DHT22;1382;52.142;11.618;2023-09-07T10:20:17;31.90;36.80
2749;DHT22;1382;52.142;11.618;2023-09-07T10:22:44;31.90;37.30
2749;DHT22;1382;52.142;11.618;2023-09-07T10:25:19;32.10;37.90
2749;DHT22;1382;52.142;11.618;2023-09-07T10:27:48;32.20;36.90
2749;DHT22;1382;52.142;11.618;2023-09-07T10:30:16;32.20;38.20
2749;DHT22;1382;52.142;11.618;2023-09-07T10:32:43;32.40;37.80
2749;DHT22;1382;52.142;11.618;2023-09-07T10:35:18;32.60;37.80
2749;DHT22;1382;52.142;11.618;2023-09-07T10:37:45;33.00;37.20
2749;DHT22;1382;52.142;11.618;2023-09-07T10:40:13;33.10;37.20
2749;DHT22;1382;52.142;11.618;2023-09-07T10:42:45;33.10;37.70
2749;DHT22;1382;52.142;11.618;2023-09-07T10:45:16;33.30;37.40
2749;DHT22;1382;52.142;11.618;2023-09-07T10:47:43;33.40;37.50
2749;DHT22;1382;52.142;11.618;2023-09-07T10:50:11;33.60;37.50
2749;DHT22;1382;52.142;11.618;2023-09-07T10:52:38;33.70;37.60
2749;DHT22;1382;52.142;11.618;2023-09-07T10:55:06;33.80;37.50
2749;DHT22;1382;52.142;11.618;2023-09-07T10:57:41;33.90;36.40
2749;DHT22;1382;52.142;11.618;2023-09-07T11:00:10;34.00;36.10
2749;DHT22;1382;52.142;11.618;2023-09-07T11:02:38;34.10;36.00
2749;DHT22;1382;52.142;11.618;2023-09-07T11:05:05;34.20;35.80
2749;DHT22;1382;52.142;11.618;2023-09-07T11:07:32;34.20;35.30
2749;DHT22;1382;52.142;11.618;2023-09-07T11:10:00;34.40;35.90
2749;DHT22;1382;52.142;11.618;2023-09-07T11:12:27;34.40;35.00
2749;DHT22;1382;52.142;11.618;2023-09-07T11:14:54;34.50;34.20
2749;DHT22;1382;52.142;11.618;2023-09-07T11:17:26;34.80;35.30
2749;DHT22;1382;52.142;11.618;2023-09-07T11:19:54;34.80;34.80
2749;DHT22;1382;52.142;11.618;2023-09-07T11:22:21;34.90;34.50
2749;DHT22;1382;52.142;11.618;2023-09-07T11:24:48;35.00;35.00
2749;DHT22;1382;52.142;11.618;2023-09-07T11:27:17;35.00;34.30
2749;DHT22;1382;52.142;11.618;2023-09-07T11:29:51;35.10;33.90
2749;DHT22;1382;52.142;11.618;2023-09-07T11:32:18;35.20;33.80
2749;DHT22;1382;52.142;11.618;2023-09-07T11:34:48;35.40;34.40
2749;DHT22;1382;52.142;11.618;2023-09-07T11:37:17;35.40;34.30
2749;DHT22;1382;52.142;11.618;2023-09-07T11:39:45;35.40;34.50
2749;DHT22;1382;52.142;11.618;2023-09-07T11:42:11;35.50;33.70
2749;DHT22;1382;52.142;11.618;2023-09-07T11:44:38;35.50;33.90
2749;DHT22;1382;52.142;11.618;2023-09-07T11:47:05;35.60;34.10
2749;DHT22;1382;52.142;11.618;2023-09-07T11:49:32;35.60;33.00
2749;DHT22;1382;52.142;11.618;2023-09-07T11:51:59;35.70;32.50
2749;DHT22;1382;52.142;11.618;2023-09-07T11:54:28;35.80;33.70
2749;DHT22;1382;52.142;11.618;2023-09-07T11:56:55;35.80;32.50
2749;DHT22;1382;52.142;11.618;2023-09-07T11:59:22;35.90;32.40
2749;DHT22;1382;52.142;11.618;2023-09-07T12:01:49;36.00;31.70
2749;DHT22;1382;52.142;11.618;2023-09-07T12:04:16;36.00;31.00
2749;DHT22;1382;52.142;11.618;2023-09-07T12:06:43;36.10;31.00
2749;DHT22;1382;52.142;11.618;2023-09-07T12:09:11;36.20;31.00
2749;DHT22;1382;52.142;11.618;2023-09-07T12:11:40;36.20;31.30
2749;DHT22;1382;52.142;11.618;2023-09-07T12:14:07;36.30;30.60
2749;DHT22;1382;52.142;11.618;2023-09-07T12:16:34;36.30;28.50
2749;DHT22;1382;52.142;11.618;2023-09-07T12:19:01;36.30;30.40
2749;DHT22;1382;52.142;11.618;2023-09-07T12:21:28;36.50;30.40
2749;DHT22;1382;52.142;11.618;2023-09-07T12:23:55;36.40;30.20
2749;DHT22;1382;52.142;11.618;2023-09-07T12:26:22;36.70;31.40
2749;DHT22;1382;52.142;11.618;2023-09-07T12:28:50;36.50;31.40
2749;DHT22;1382;52.142;11.618;2023-09-07T12:31:17;36.60;30.00
2749;DHT22;1382;52.142;11.618;2023-09-07T12:33:44;36.70;29.30
2749;DHT22;1382;52.142;11.618;2023-09-07T12:36:11;36.80;30.90
2749;DHT22;1382;52.142;11.618;2023-09-07T12:38:39;36.80;30.70
2749;DHT22;1382;52.142;11.618;2023-09-07T12:41:06;37.00;30.60
2749;DHT22;1382;52.142;11.618;2023-09-07T12:43:33;36.90;31.90
2749;DHT22;1382;52.142;11.618;2023-09-07T12:46:02;36.90;31.40
2749;DHT22;1382;52.142;11.618;2023-09-07T12:48:29;37.00;30.20
2749;DHT22;1382;52.142;11.618;2023-09-07T12:50:56;37.00;30.40
2749;DHT22;1382;52.142;11.618;2023-09-07T12:53:23;37.10;30.70
2749;DHT22;1382;52.142;11.618;2023-09-07T12:55:51;37.10;30.50
2749;DHT22;1382;52.142;11.618;2023-09-07T12:58:18;37.10;30.10
2749;DHT22;1382;52.142;11.618;2023-09-07T13:00:45;37.00;27.70
2749;DHT22;1382;52.142;11.618;2023-09-07T13:03:13;36.80;27.00
2749;DHT22;1382;52.142;11.618;2023-09-07T13:05:40;36.60;27.50
2749;DHT22;1382;52.142;11.618;2023-09-07T13:08:07;36.60;27.60
2749;DHT22;1382;52.142;11.618;2023-09-07T13:10:34;36.50;27.40
2749;DHT22;1382;52.142;11.618;2023-09-07T13:13:01;36.50;27.70
2749;DHT22;1382;52.142;11.618;2023-09-07T13:15:27;36.40;27.60
2749;DHT22;1382;52.142;11.618;2023-09-07T13:17:54;36.30;28.20
2749;DHT22;1382;52.142;11.618;2023-09-07T13:20:23;36.40;28.70
2749;DHT22;1382;52.142;11.618;2023-09-07T13:22:49;36.30;26.00
2749;DHT22;1382;52.142;11.618;2023-09-07T13:25:16;36.20;26.20
2749;DHT22;1382;52.142;11.618;2023-09-07T13:27:43;36.10;26.70
2749;DHT22;1382;52.142;11.618;2023-09-07T13:30:10;36.20;26.70
2749;DHT22;1382;52.142;11.618;2023-09-07T13:32:37;36.00;27.30
2749;DHT22;1382;52.142;11.618;2023-09-07T13:35:05;36.00;27.30
2749;DHT22;1382;52.142;11.618;2023-09-07T13:37:33;36.10;27.50
2749;DHT22;1382;52.142;11.618;2023-09-07T13:40:00;36.20;28.20
2749;DHT22;1382;52.142;11.618;2023-09-07T13:42:29;36.20;27.30
2749;DHT22;1382;52.142;11.618;2023-09-07T13:44:55;36.30;27.00
2749;DHT22;1382;52.142;11.618;2023-09-07T13:47:22;36.10;27.80
2749;DHT22;1382;52.142;11.618;2023-09-07T13:49:49;36.20;27.40
2749;DHT22;1382;52.142;11.618;2023-09-07T13:52:16;36.20;26.60
2749;DHT22;1382;52.142;11.618;2023-09-07T13:54:44;36.10;27.70
2749;DHT22;1382;52.142;11.618;2023-09-07T13:57:11;36.20;27.10
2749;DHT22;1382;52.142;11.618;2023-09-07T13:59:38;36.10;26.30
2749;DHT22;1382;52.142;11.618;2023-09-07T14:02:05;36.20;26.70
2749;DHT22;1382;52.142;11.618;2023-09-07T14:04:32;36.30;26.50
2749;DHT22;1382;52.142;11.618;2023-09-07T14:06:59;36.20;26.80
2749;DHT22;1382;52.142;11.618;2023-09-07T14:09:26;36.20;26.10
2749;DHT22;1382;52.142;11.618;2023-09-07T14:11:54;36.10;25.50
2749;DHT22;1382;52.142;11.618;2023-09-07T14:14:21;36.10;25.90
2749;DHT22;1382;52.142;11.618;2023-09-07T14:16:48;36.20;25.90
2749;DHT22;1382;52.142;11.618;2023-09-07T14:19:15;36.20;26.50
2749;DHT22;1382;52.142;11.618;2023-09-07T14:21:42;36.20;26.40
2749;DHT22;1382;52.142;11.618;2023-09-07T14:24:09;36.20;26.50
2749;DHT22;1382;52.142;11.618;2023-09-07T14:26:36;36.20;26.30
2749;DHT22;1382;52.142;11.618;2023-09-07T14:29:04;36.30;26.40
2749;DHT22;1382;52.142;11.618;2023-09-07T14:31:31;36.20;26.80
2749;DHT22;1382;52.142;11.618;2023-09-07T14:33:57;36.20;25.20
2749;DHT22;1382;52.142;11.618;2023-09-07T14:36:24;36.30;26.30
2749;DHT22;1382;52.142;11.618;2023-09-07T14:38:51;36.30;25.80
2749;DHT22;1382;52.142;11.618;2023-09-07T14:41:18;36.40;25.80
2749;DHT22;1382;52.142;11.618;2023-09-07T14:43:45;36.40;26.30
2749;DHT22;1382;52.142;11.618;2023-09-07T14:46:13;36.40;26.40
2749;DHT22;1382;52.142;11.618;2023-09-07T14:48:41;36.40;25.90
2749;DHT22;1382;52.142;11.618;2023-09-07T14:51:08;36.50;26.30
2749;DHT22;1382;52.142;11.618;2023-09-07T14:53:34;36.50;25.80
2749;DHT22;1382;52.142;11.618;2023-09-07T14:56:01;36.50;26.30
2749;DHT22;1382;52.142;11.618;2023-09-07T14:58:28;36.50;26.50
2749;DHT22;1382;52.142;11.618;2023-09-07T15:00:56;36.60;26.20
2749;DHT22;1382;52.142;11.618;2023-09-07T15:03:24;36.50;26.50
2749;DHT22;1382;52.142;11.618;2023-09-07T15:05:51;36.60;26.70
2749;DHT22;1382;52.142;11.618;2023-09-07T15:08:19;36.60;27.10
2749;DHT22;1382;52.142;11.618;2023-09-07T15:10:46;36.60;27.30
2749;DHT22;1382;52.142;11.618;2023-09-07T15:13:12;36.70;26.70
2749;DHT22;1382;52.142;11.618;2023-09-07T15:15:39;36.70;26.40
2749;DHT22;1382;52.142;11.618;2023-09-07T15:18:06;36.80;26.00
2749;DHT22;1382;52.142;11.618;2023-09-07T15:20:35;36.80;26.60
2749;DHT22;1382;52.142;11.618;2023-09-07T15:23:03;36.80;26.10
2749;DHT22;1382;52.142;11.618;2023-09-07T15:25:29;36.80;26.50
2749;DHT22;1382;52.142;11.618;2023-09-07T15:27:57;36.90;26.70
2749;DHT22;1382;52.142;11.618;2023-09-07T15:30:24;36.80;26.50
2749;DHT22;1382;52.142;11.618;2023-09-07T15:32:51;37.00;26.60
2749;DHT22;1382;52.142;11.618;2023-09-07T15:35:18;36.80;26.20
2749;DHT22;1382;52.142;11.618;2023-09-07T15:37:46;36.80;26.50
2749;DHT22;1382;52.142;11.618;2023-09-07T15:40:14;36.80;26.70
2749;DHT22;1382;52.142;11.618;2023-09-07T15:42:41;36.90;26.50
2749;DHT22;1382;52.142;11.618;2023-09-07T15:45:09;36.90;26.40
2749;DHT22;1382;52.142;11.618;2023-09-07T15:47:37;36.70;26.40
2749;DHT22;1382;52.142;11.618;2023-09-07T15:50:10;36.70;26.30
2749;DHT22;1382;52.142;11.618;2023-09-07T15:59:40;36.60;27.00